<?xml version="1.0" encoding="UTF-8" standalone="no" ?>
<gpx xmlns="http://www.topografix.com/GPX/1/1" xmlns:xsi="http://www.w3.org/2001/XMLSchema-instance" xsi:schemaLocation="http://www.topografix.com/GPX/1/1 http://www.topografix.com/GPX/1/1/gpx.xsd" version="1.1" creator="VisuGPX - https://www.visugpx.com">
  <metadata>
    <name>SAOU18/1/19</name>
  </metadata>
  <trk>
    <name><![CDATA[SAOU18/1/19]]></name>
    <trkseg>
      <trkpt lat="44.64678" lon="5.06056">
        <ele>331</ele>
        <time>2019-01-18T09:47:11+01:00</time>
      </trkpt>
      <trkpt lat="44.64658" lon="5.06072">
        <ele>330</ele>
        <time>2019-01-18T09:47:12+01:00</time>
      </trkpt>
      <trkpt lat="44.64674" lon="5.0605">
        <ele>331</ele>
        <time>2019-01-18T09:47:31+01:00</time>
      </trkpt>
      <trkpt lat="44.6469" lon="5.06073">
        <ele>331</ele>
        <time>2019-01-18T09:50:39+01:00</time>
      </trkpt>
      <trkpt lat="44.647" lon="5.06102">
        <ele>332</ele>
        <time>2019-01-18T09:51:45+01:00</time>
      </trkpt>
      <trkpt lat="44.64723" lon="5.061">
        <ele>334</ele>
        <time>2019-01-18T09:52:13+01:00</time>
      </trkpt>
      <trkpt lat="44.64746" lon="5.06099">
        <ele>337</ele>
        <time>2019-01-18T09:52:49+01:00</time>
      </trkpt>
      <trkpt lat="44.6477" lon="5.06095">
        <ele>341</ele>
        <time>2019-01-18T09:53:09+01:00</time>
      </trkpt>
      <trkpt lat="44.64794" lon="5.06092">
        <ele>344</ele>
        <time>2019-01-18T09:53:33+01:00</time>
      </trkpt>
      <trkpt lat="44.64816" lon="5.061">
        <ele>347</ele>
        <time>2019-01-18T09:54:01+01:00</time>
      </trkpt>
      <trkpt lat="44.64838" lon="5.06094">
        <ele>350</ele>
        <time>2019-01-18T09:54:19+01:00</time>
      </trkpt>
      <trkpt lat="44.64861" lon="5.06093">
        <ele>353</ele>
        <time>2019-01-18T09:54:44+01:00</time>
      </trkpt>
      <trkpt lat="44.64884" lon="5.06094">
        <ele>356</ele>
        <time>2019-01-18T09:55:11+01:00</time>
      </trkpt>
      <trkpt lat="44.64907" lon="5.0609">
        <ele>360</ele>
        <time>2019-01-18T09:55:37+01:00</time>
      </trkpt>
      <trkpt lat="44.64929" lon="5.06082">
        <ele>364</ele>
        <time>2019-01-18T09:56:00+01:00</time>
      </trkpt>
      <trkpt lat="44.64951" lon="5.06083">
        <ele>368</ele>
        <time>2019-01-18T09:56:23+01:00</time>
      </trkpt>
      <trkpt lat="44.64968" lon="5.06061">
        <ele>371</ele>
        <time>2019-01-18T09:56:49+01:00</time>
      </trkpt>
      <trkpt lat="44.64987" lon="5.06041">
        <ele>376</ele>
        <time>2019-01-18T09:57:11+01:00</time>
      </trkpt>
      <trkpt lat="44.65002" lon="5.06017">
        <ele>379</ele>
        <time>2019-01-18T09:57:40+01:00</time>
      </trkpt>
      <trkpt lat="44.6502" lon="5.05997">
        <ele>383</ele>
        <time>2019-01-18T09:58:08+01:00</time>
      </trkpt>
      <trkpt lat="44.6504" lon="5.05982">
        <ele>387</ele>
        <time>2019-01-18T09:58:43+01:00</time>
      </trkpt>
      <trkpt lat="44.65063" lon="5.0598">
        <ele>392</ele>
        <time>2019-01-18T09:59:09+01:00</time>
      </trkpt>
      <trkpt lat="44.65087" lon="5.05975">
        <ele>398</ele>
        <time>2019-01-18T09:59:42+01:00</time>
      </trkpt>
      <trkpt lat="44.65109" lon="5.05967">
        <ele>403</ele>
        <time>2019-01-18T10:00:16+01:00</time>
      </trkpt>
      <trkpt lat="44.65111" lon="5.05935">
        <ele>408</ele>
        <time>2019-01-18T10:00:52+01:00</time>
      </trkpt>
      <trkpt lat="44.65113" lon="5.05904">
        <ele>415</ele>
        <time>2019-01-18T10:01:36+01:00</time>
      </trkpt>
      <trkpt lat="44.65111" lon="5.05872">
        <ele>423</ele>
        <time>2019-01-18T10:02:08+01:00</time>
      </trkpt>
      <trkpt lat="44.65093" lon="5.05851">
        <ele>422</ele>
        <time>2019-01-18T10:02:46+01:00</time>
      </trkpt>
      <trkpt lat="44.651" lon="5.05821">
        <ele>431</ele>
        <time>2019-01-18T10:03:30+01:00</time>
      </trkpt>
      <trkpt lat="44.65112" lon="5.05793">
        <ele>437</ele>
        <time>2019-01-18T10:03:59+01:00</time>
      </trkpt>
      <trkpt lat="44.65106" lon="5.05761">
        <ele>437</ele>
        <time>2019-01-18T10:04:29+01:00</time>
      </trkpt>
      <trkpt lat="44.65117" lon="5.05733">
        <ele>441</ele>
        <time>2019-01-18T10:04:51+01:00</time>
      </trkpt>
      <trkpt lat="44.65133" lon="5.05709">
        <ele>446</ele>
        <time>2019-01-18T10:05:19+01:00</time>
      </trkpt>
      <trkpt lat="44.65138" lon="5.05678">
        <ele>450</ele>
        <time>2019-01-18T10:05:50+01:00</time>
      </trkpt>
      <trkpt lat="44.65145" lon="5.05647">
        <ele>453</ele>
        <time>2019-01-18T10:06:19+01:00</time>
      </trkpt>
      <trkpt lat="44.65153" lon="5.05618">
        <ele>456</ele>
        <time>2019-01-18T10:06:44+01:00</time>
      </trkpt>
      <trkpt lat="44.6517" lon="5.05596">
        <ele>461</ele>
        <time>2019-01-18T10:07:17+01:00</time>
      </trkpt>
      <trkpt lat="44.65185" lon="5.05572">
        <ele>466</ele>
        <time>2019-01-18T10:07:44+01:00</time>
      </trkpt>
      <trkpt lat="44.65195" lon="5.05543">
        <ele>470</ele>
        <time>2019-01-18T10:08:18+01:00</time>
      </trkpt>
      <trkpt lat="44.65209" lon="5.05518">
        <ele>474</ele>
        <time>2019-01-18T10:08:44+01:00</time>
      </trkpt>
      <trkpt lat="44.65223" lon="5.05493">
        <ele>479</ele>
        <time>2019-01-18T10:09:16+01:00</time>
      </trkpt>
      <trkpt lat="44.65239" lon="5.05469">
        <ele>486</ele>
        <time>2019-01-18T10:09:52+01:00</time>
      </trkpt>
      <trkpt lat="44.65259" lon="5.05455">
        <ele>492</ele>
        <time>2019-01-18T10:10:23+01:00</time>
      </trkpt>
      <trkpt lat="44.65268" lon="5.05426">
        <ele>496</ele>
        <time>2019-01-18T10:11:02+01:00</time>
      </trkpt>
      <trkpt lat="44.65285" lon="5.05405">
        <ele>502</ele>
        <time>2019-01-18T10:14:16+01:00</time>
      </trkpt>
      <trkpt lat="44.65292" lon="5.05374">
        <ele>505</ele>
        <time>2019-01-18T10:14:56+01:00</time>
      </trkpt>
      <trkpt lat="44.65302" lon="5.05344">
        <ele>510</ele>
        <time>2019-01-18T10:15:31+01:00</time>
      </trkpt>
      <trkpt lat="44.65312" lon="5.05316">
        <ele>515</ele>
        <time>2019-01-18T10:16:07+01:00</time>
      </trkpt>
      <trkpt lat="44.65325" lon="5.0529">
        <ele>520</ele>
        <time>2019-01-18T10:16:45+01:00</time>
      </trkpt>
      <trkpt lat="44.65342" lon="5.05268">
        <ele>527</ele>
        <time>2019-01-18T10:17:19+01:00</time>
      </trkpt>
      <trkpt lat="44.65348" lon="5.05237">
        <ele>531</ele>
        <time>2019-01-18T10:17:53+01:00</time>
      </trkpt>
      <trkpt lat="44.65356" lon="5.05207">
        <ele>537</ele>
        <time>2019-01-18T10:18:24+01:00</time>
      </trkpt>
      <trkpt lat="44.65359" lon="5.05176">
        <ele>541</ele>
        <time>2019-01-18T10:18:59+01:00</time>
      </trkpt>
      <trkpt lat="44.65368" lon="5.05146">
        <ele>547</ele>
        <time>2019-01-18T10:19:29+01:00</time>
      </trkpt>
      <trkpt lat="44.65374" lon="5.05116">
        <ele>553</ele>
        <time>2019-01-18T10:20:11+01:00</time>
      </trkpt>
      <trkpt lat="44.65385" lon="5.05088">
        <ele>558</ele>
        <time>2019-01-18T10:20:50+01:00</time>
      </trkpt>
      <trkpt lat="44.65402" lon="5.05068">
        <ele>566</ele>
        <time>2019-01-18T10:21:30+01:00</time>
      </trkpt>
      <trkpt lat="44.65423" lon="5.05055">
        <ele>574</ele>
        <time>2019-01-18T10:22:14+01:00</time>
      </trkpt>
      <trkpt lat="44.65434" lon="5.05027">
        <ele>580</ele>
        <time>2019-01-18T10:23:09+01:00</time>
      </trkpt>
      <trkpt lat="44.65444" lon="5.04999">
        <ele>588</ele>
        <time>2019-01-18T10:23:51+01:00</time>
      </trkpt>
      <trkpt lat="44.65456" lon="5.04971">
        <ele>593</ele>
        <time>2019-01-18T10:25:12+01:00</time>
      </trkpt>
      <trkpt lat="44.65476" lon="5.04954">
        <ele>602</ele>
        <time>2019-01-18T10:26:08+01:00</time>
      </trkpt>
      <trkpt lat="44.65495" lon="5.04937">
        <ele>608</ele>
        <time>2019-01-18T10:26:59+01:00</time>
      </trkpt>
      <trkpt lat="44.65515" lon="5.04922">
        <ele>615</ele>
        <time>2019-01-18T10:27:46+01:00</time>
      </trkpt>
      <trkpt lat="44.65535" lon="5.04905">
        <ele>622</ele>
        <time>2019-01-18T10:28:38+01:00</time>
      </trkpt>
      <trkpt lat="44.65559" lon="5.049">
        <ele>637</ele>
        <time>2019-01-18T10:29:56+01:00</time>
      </trkpt>
      <trkpt lat="44.6558" lon="5.04891">
        <ele>655</ele>
        <time>2019-01-18T10:34:00+01:00</time>
      </trkpt>
      <trkpt lat="44.65602" lon="5.04882">
        <ele>672</ele>
        <time>2019-01-18T10:34:43+01:00</time>
      </trkpt>
      <trkpt lat="44.65615" lon="5.04856">
        <ele>664</ele>
        <time>2019-01-18T10:35:26+01:00</time>
      </trkpt>
      <trkpt lat="44.65627" lon="5.04829">
        <ele>671</ele>
        <time>2019-01-18T10:39:15+01:00</time>
      </trkpt>
      <trkpt lat="44.65649" lon="5.04838">
        <ele>691</ele>
        <time>2019-01-18T10:43:52+01:00</time>
      </trkpt>
      <trkpt lat="44.65655" lon="5.04869">
        <ele>694</ele>
        <time>2019-01-18T10:44:53+01:00</time>
      </trkpt>
      <trkpt lat="44.65651" lon="5.04902">
        <ele>701</ele>
        <time>2019-01-18T10:46:14+01:00</time>
      </trkpt>
      <trkpt lat="44.65671" lon="5.04918">
        <ele>712</ele>
        <time>2019-01-18T10:48:33+01:00</time>
      </trkpt>
      <trkpt lat="44.65648" lon="5.0487">
        <ele>689</ele>
        <time>2019-01-18T10:50:57+01:00</time>
      </trkpt>
      <trkpt lat="44.65667" lon="5.04894">
        <ele>702</ele>
        <time>2019-01-18T10:51:07+01:00</time>
      </trkpt>
      <trkpt lat="44.65646" lon="5.04912">
        <ele>705</ele>
        <time>2019-01-18T10:52:37+01:00</time>
      </trkpt>
      <trkpt lat="44.65668" lon="5.04902">
        <ele>705</ele>
        <time>2019-01-18T10:52:56+01:00</time>
      </trkpt>
      <trkpt lat="44.65689" lon="5.04911">
        <ele>719</ele>
        <time>2019-01-18T10:53:38+01:00</time>
      </trkpt>
      <trkpt lat="44.65703" lon="5.04937">
        <ele>740</ele>
        <time>2019-01-18T10:54:16+01:00</time>
      </trkpt>
      <trkpt lat="44.65726" lon="5.04935">
        <ele>751</ele>
        <time>2019-01-18T10:55:40+01:00</time>
      </trkpt>
      <trkpt lat="44.65749" lon="5.04937">
        <ele>764</ele>
        <time>2019-01-18T11:01:12+01:00</time>
      </trkpt>
      <trkpt lat="44.65732" lon="5.04958">
        <ele>761</ele>
        <time>2019-01-18T11:01:46+01:00</time>
      </trkpt>
      <trkpt lat="44.65714" lon="5.04978">
        <ele>764</ele>
        <time>2019-01-18T11:03:26+01:00</time>
      </trkpt>
      <trkpt lat="44.65695" lon="5.04994">
        <ele>770</ele>
        <time>2019-01-18T11:04:27+01:00</time>
      </trkpt>
      <trkpt lat="44.6568" lon="5.05019">
        <ele>778</ele>
        <time>2019-01-18T11:05:47+01:00</time>
      </trkpt>
      <trkpt lat="44.65739" lon="5.05078">
        <ele>798</ele>
        <time>2019-01-18T11:10:56+01:00</time>
      </trkpt>
      <trkpt lat="44.65762" lon="5.05084">
        <ele>800</ele>
        <time>2019-01-18T11:11:51+01:00</time>
      </trkpt>
      <trkpt lat="44.65783" lon="5.05076">
        <ele>798</ele>
        <time>2019-01-18T11:12:16+01:00</time>
      </trkpt>
      <trkpt lat="44.65799" lon="5.05051">
        <ele>796</ele>
        <time>2019-01-18T11:12:50+01:00</time>
      </trkpt>
      <trkpt lat="44.65812" lon="5.05026">
        <ele>795</ele>
        <time>2019-01-18T11:13:24+01:00</time>
      </trkpt>
      <trkpt lat="44.65818" lon="5.04995">
        <ele>794</ele>
        <time>2019-01-18T11:13:54+01:00</time>
      </trkpt>
      <trkpt lat="44.65827" lon="5.04965">
        <ele>795</ele>
        <time>2019-01-18T11:14:16+01:00</time>
      </trkpt>
      <trkpt lat="44.65834" lon="5.04935">
        <ele>798</ele>
        <time>2019-01-18T11:14:52+01:00</time>
      </trkpt>
      <trkpt lat="44.65833" lon="5.04902">
        <ele>802</ele>
        <time>2019-01-18T11:15:31+01:00</time>
      </trkpt>
      <trkpt lat="44.65834" lon="5.0487">
        <ele>807</ele>
        <time>2019-01-18T11:16:12+01:00</time>
      </trkpt>
      <trkpt lat="44.65832" lon="5.04838">
        <ele>814</ele>
        <time>2019-01-18T11:17:04+01:00</time>
      </trkpt>
      <trkpt lat="44.65838" lon="5.04807">
        <ele>821</ele>
        <time>2019-01-18T11:18:03+01:00</time>
      </trkpt>
      <trkpt lat="44.65845" lon="5.04777">
        <ele>828</ele>
        <time>2019-01-18T11:18:46+01:00</time>
      </trkpt>
      <trkpt lat="44.65845" lon="5.04746">
        <ele>837</ele>
        <time>2019-01-18T11:19:38+01:00</time>
      </trkpt>
      <trkpt lat="44.65853" lon="5.04716">
        <ele>845</ele>
        <time>2019-01-18T11:20:38+01:00</time>
      </trkpt>
      <trkpt lat="44.65849" lon="5.04684">
        <ele>853</ele>
        <time>2019-01-18T11:21:47+01:00</time>
      </trkpt>
      <trkpt lat="44.65836" lon="5.04656">
        <ele>864</ele>
        <time>2019-01-18T11:22:45+01:00</time>
      </trkpt>
      <trkpt lat="44.65849" lon="5.04629">
        <ele>866</ele>
        <time>2019-01-18T11:27:12+01:00</time>
      </trkpt>
      <trkpt lat="44.65871" lon="5.0464">
        <ele>867</ele>
        <time>2019-01-18T11:29:36+01:00</time>
      </trkpt>
      <trkpt lat="44.65893" lon="5.04634">
        <ele>867</ele>
        <time>2019-01-18T11:30:16+01:00</time>
      </trkpt>
      <trkpt lat="44.65916" lon="5.04627">
        <ele>868</ele>
        <time>2019-01-18T11:30:46+01:00</time>
      </trkpt>
      <trkpt lat="44.65936" lon="5.04613">
        <ele>870</ele>
        <time>2019-01-18T11:31:25+01:00</time>
      </trkpt>
      <trkpt lat="44.65959" lon="5.04612">
        <ele>870</ele>
        <time>2019-01-18T11:32:03+01:00</time>
      </trkpt>
      <trkpt lat="44.65981" lon="5.04609">
        <ele>869</ele>
        <time>2019-01-18T11:32:40+01:00</time>
      </trkpt>
      <trkpt lat="44.66004" lon="5.04616">
        <ele>870</ele>
        <time>2019-01-18T11:33:12+01:00</time>
      </trkpt>
      <trkpt lat="44.66026" lon="5.04612">
        <ele>873</ele>
        <time>2019-01-18T11:33:32+01:00</time>
      </trkpt>
      <trkpt lat="44.66049" lon="5.04609">
        <ele>876</ele>
        <time>2019-01-18T11:34:14+01:00</time>
      </trkpt>
      <trkpt lat="44.66072" lon="5.04611">
        <ele>879</ele>
        <time>2019-01-18T11:34:49+01:00</time>
      </trkpt>
      <trkpt lat="44.66095" lon="5.04606">
        <ele>878</ele>
        <time>2019-01-18T11:35:22+01:00</time>
      </trkpt>
      <trkpt lat="44.66115" lon="5.04623">
        <ele>879</ele>
        <time>2019-01-18T11:35:54+01:00</time>
      </trkpt>
      <trkpt lat="44.66138" lon="5.04619">
        <ele>879</ele>
        <time>2019-01-18T11:36:25+01:00</time>
      </trkpt>
      <trkpt lat="44.66156" lon="5.04643">
        <ele>877</ele>
        <time>2019-01-18T11:38:22+01:00</time>
      </trkpt>
      <trkpt lat="44.66178" lon="5.04649">
        <ele>874</ele>
        <time>2019-01-18T11:38:46+01:00</time>
      </trkpt>
      <trkpt lat="44.66201" lon="5.04653">
        <ele>870</ele>
        <time>2019-01-18T11:39:21+01:00</time>
      </trkpt>
      <trkpt lat="44.66222" lon="5.04667">
        <ele>860</ele>
        <time>2019-01-18T11:40:04+01:00</time>
      </trkpt>
      <trkpt lat="44.66243" lon="5.04678">
        <ele>855</ele>
        <time>2019-01-18T11:40:30+01:00</time>
      </trkpt>
      <trkpt lat="44.66266" lon="5.04678">
        <ele>857</ele>
        <time>2019-01-18T11:41:04+01:00</time>
      </trkpt>
      <trkpt lat="44.66289" lon="5.04674">
        <ele>856</ele>
        <time>2019-01-18T11:41:38+01:00</time>
      </trkpt>
      <trkpt lat="44.66311" lon="5.04687">
        <ele>854</ele>
        <time>2019-01-18T11:42:13+01:00</time>
      </trkpt>
      <trkpt lat="44.66331" lon="5.04705">
        <ele>855</ele>
        <time>2019-01-18T11:42:42+01:00</time>
      </trkpt>
      <trkpt lat="44.66345" lon="5.0473">
        <ele>846</ele>
        <time>2019-01-18T11:43:46+01:00</time>
      </trkpt>
      <trkpt lat="44.66362" lon="5.04751">
        <ele>836</ele>
        <time>2019-01-18T11:44:25+01:00</time>
      </trkpt>
      <trkpt lat="44.66367" lon="5.04782">
        <ele>838</ele>
        <time>2019-01-18T11:45:10+01:00</time>
      </trkpt>
      <trkpt lat="44.66375" lon="5.04812">
        <ele>832</ele>
        <time>2019-01-18T11:45:53+01:00</time>
      </trkpt>
      <trkpt lat="44.66383" lon="5.04842">
        <ele>832</ele>
        <time>2019-01-18T11:46:32+01:00</time>
      </trkpt>
      <trkpt lat="44.66393" lon="5.04872">
        <ele>827</ele>
        <time>2019-01-18T11:47:27+01:00</time>
      </trkpt>
      <trkpt lat="44.66372" lon="5.04884">
        <ele>828</ele>
        <time>2019-01-18T11:47:56+01:00</time>
      </trkpt>
      <trkpt lat="44.66356" lon="5.04907">
        <ele>824</ele>
        <time>2019-01-18T11:48:43+01:00</time>
      </trkpt>
      <trkpt lat="44.66368" lon="5.04935">
        <ele>819</ele>
        <time>2019-01-18T11:49:11+01:00</time>
      </trkpt>
      <trkpt lat="44.66377" lon="5.04964">
        <ele>814</ele>
        <time>2019-01-18T11:49:40+01:00</time>
      </trkpt>
      <trkpt lat="44.66388" lon="5.04994">
        <ele>812</ele>
        <time>2019-01-18T11:50:09+01:00</time>
      </trkpt>
      <trkpt lat="44.66399" lon="5.05021">
        <ele>810</ele>
        <time>2019-01-18T11:50:38+01:00</time>
      </trkpt>
      <trkpt lat="44.66411" lon="5.05049">
        <ele>810</ele>
        <time>2019-01-18T11:51:09+01:00</time>
      </trkpt>
      <trkpt lat="44.6642" lon="5.05078">
        <ele>809</ele>
        <time>2019-01-18T11:51:33+01:00</time>
      </trkpt>
      <trkpt lat="44.66427" lon="5.05108">
        <ele>808</ele>
        <time>2019-01-18T11:51:55+01:00</time>
      </trkpt>
      <trkpt lat="44.66416" lon="5.05136">
        <ele>810</ele>
        <time>2019-01-18T11:52:26+01:00</time>
      </trkpt>
      <trkpt lat="44.66425" lon="5.05166">
        <ele>810</ele>
        <time>2019-01-18T11:52:49+01:00</time>
      </trkpt>
      <trkpt lat="44.66441" lon="5.05191">
        <ele>810</ele>
        <time>2019-01-18T11:53:21+01:00</time>
      </trkpt>
      <trkpt lat="44.66455" lon="5.05217">
        <ele>806</ele>
        <time>2019-01-18T11:53:45+01:00</time>
      </trkpt>
      <trkpt lat="44.66472" lon="5.05237">
        <ele>801</ele>
        <time>2019-01-18T11:54:23+01:00</time>
      </trkpt>
      <trkpt lat="44.6648" lon="5.05268">
        <ele>804</ele>
        <time>2019-01-18T11:54:46+01:00</time>
      </trkpt>
      <trkpt lat="44.66494" lon="5.05293">
        <ele>804</ele>
        <time>2019-01-18T11:55:17+01:00</time>
      </trkpt>
      <trkpt lat="44.66497" lon="5.05326">
        <ele>804</ele>
        <time>2019-01-18T11:55:52+01:00</time>
      </trkpt>
      <trkpt lat="44.66493" lon="5.05357">
        <ele>802</ele>
        <time>2019-01-18T11:56:20+01:00</time>
      </trkpt>
      <trkpt lat="44.66489" lon="5.05389">
        <ele>801</ele>
        <time>2019-01-18T11:56:54+01:00</time>
      </trkpt>
      <trkpt lat="44.66484" lon="5.05421">
        <ele>796</ele>
        <time>2019-01-18T11:57:32+01:00</time>
      </trkpt>
      <trkpt lat="44.6648" lon="5.05452">
        <ele>789</ele>
        <time>2019-01-18T11:57:56+01:00</time>
      </trkpt>
      <trkpt lat="44.66471" lon="5.05482">
        <ele>789</ele>
        <time>2019-01-18T11:58:21+01:00</time>
      </trkpt>
      <trkpt lat="44.66478" lon="5.05514">
        <ele>764</ele>
        <time>2019-01-18T12:39:12+01:00</time>
      </trkpt>
      <trkpt lat="44.66487" lon="5.05484">
        <ele>767</ele>
        <time>2019-01-18T12:39:53+01:00</time>
      </trkpt>
      <trkpt lat="44.66464" lon="5.05487">
        <ele>790</ele>
        <time>2019-01-18T12:41:43+01:00</time>
      </trkpt>
      <trkpt lat="44.6644" lon="5.05496">
        <ele>793</ele>
        <time>2019-01-18T12:47:24+01:00</time>
      </trkpt>
      <trkpt lat="44.66424" lon="5.05518">
        <ele>778</ele>
        <time>2019-01-18T12:48:42+01:00</time>
      </trkpt>
      <trkpt lat="44.66424" lon="5.05551">
        <ele>761</ele>
        <time>2019-01-18T12:50:57+01:00</time>
      </trkpt>
      <trkpt lat="44.66402" lon="5.05563">
        <ele>746</ele>
        <time>2019-01-18T12:52:13+01:00</time>
      </trkpt>
      <trkpt lat="44.6641" lon="5.05593">
        <ele>734</ele>
        <time>2019-01-18T12:53:44+01:00</time>
      </trkpt>
      <trkpt lat="44.66421" lon="5.05621">
        <ele>723</ele>
        <time>2019-01-18T12:55:04+01:00</time>
      </trkpt>
      <trkpt lat="44.66417" lon="5.05653">
        <ele>711</ele>
        <time>2019-01-18T12:55:48+01:00</time>
      </trkpt>
      <trkpt lat="44.66433" lon="5.05675">
        <ele>703</ele>
        <time>2019-01-18T12:56:31+01:00</time>
      </trkpt>
      <trkpt lat="44.66455" lon="5.05688">
        <ele>692</ele>
        <time>2019-01-18T12:57:43+01:00</time>
      </trkpt>
      <trkpt lat="44.66446" lon="5.05659">
        <ele>704</ele>
        <time>2019-01-18T12:59:10+01:00</time>
      </trkpt>
      <trkpt lat="44.66465" lon="5.05679">
        <ele>678</ele>
        <time>2019-01-18T12:59:27+01:00</time>
      </trkpt>
      <trkpt lat="44.66471" lon="5.05647">
        <ele>671</ele>
        <time>2019-01-18T13:01:23+01:00</time>
      </trkpt>
      <trkpt lat="44.66485" lon="5.05623">
        <ele>670</ele>
        <time>2019-01-18T13:02:00+01:00</time>
      </trkpt>
      <trkpt lat="44.66505" lon="5.05607">
        <ele>663</ele>
        <time>2019-01-18T13:02:39+01:00</time>
      </trkpt>
      <trkpt lat="44.66521" lon="5.05584">
        <ele>668</ele>
        <time>2019-01-18T13:03:35+01:00</time>
      </trkpt>
      <trkpt lat="44.66539" lon="5.05562">
        <ele>669</ele>
        <time>2019-01-18T13:04:17+01:00</time>
      </trkpt>
      <trkpt lat="44.66562" lon="5.0556">
        <ele>659</ele>
        <time>2019-01-18T13:05:06+01:00</time>
      </trkpt>
      <trkpt lat="44.66584" lon="5.05559">
        <ele>646</ele>
        <time>2019-01-18T13:05:46+01:00</time>
      </trkpt>
      <trkpt lat="44.66605" lon="5.05542">
        <ele>639</ele>
        <time>2019-01-18T13:06:27+01:00</time>
      </trkpt>
      <trkpt lat="44.66617" lon="5.05516">
        <ele>640</ele>
        <time>2019-01-18T13:07:09+01:00</time>
      </trkpt>
      <trkpt lat="44.66632" lon="5.05491">
        <ele>634</ele>
        <time>2019-01-18T13:07:34+01:00</time>
      </trkpt>
      <trkpt lat="44.66641" lon="5.05461">
        <ele>629</ele>
        <time>2019-01-18T13:08:18+01:00</time>
      </trkpt>
      <trkpt lat="44.66642" lon="5.0543">
        <ele>629</ele>
        <time>2019-01-18T13:09:00+01:00</time>
      </trkpt>
      <trkpt lat="44.66653" lon="5.05402">
        <ele>624</ele>
        <time>2019-01-18T13:09:34+01:00</time>
      </trkpt>
      <trkpt lat="44.66659" lon="5.05372">
        <ele>626</ele>
        <time>2019-01-18T13:09:57+01:00</time>
      </trkpt>
      <trkpt lat="44.66671" lon="5.05345">
        <ele>620</ele>
        <time>2019-01-18T13:10:30+01:00</time>
      </trkpt>
      <trkpt lat="44.66674" lon="5.05313">
        <ele>623</ele>
        <time>2019-01-18T13:10:57+01:00</time>
      </trkpt>
      <trkpt lat="44.66671" lon="5.05282">
        <ele>626</ele>
        <time>2019-01-18T13:11:40+01:00</time>
      </trkpt>
      <trkpt lat="44.66678" lon="5.05251">
        <ele>620</ele>
        <time>2019-01-18T13:12:07+01:00</time>
      </trkpt>
      <trkpt lat="44.6667" lon="5.05221">
        <ele>623</ele>
        <time>2019-01-18T13:12:36+01:00</time>
      </trkpt>
      <trkpt lat="44.66676" lon="5.05189">
        <ele>616</ele>
        <time>2019-01-18T13:13:11+01:00</time>
      </trkpt>
      <trkpt lat="44.6666" lon="5.05111">
        <ele>619</ele>
        <time>2019-01-18T13:13:44+01:00</time>
      </trkpt>
      <trkpt lat="44.66672" lon="5.05083">
        <ele>610</ele>
        <time>2019-01-18T13:14:43+01:00</time>
      </trkpt>
      <trkpt lat="44.66667" lon="5.05051">
        <ele>610</ele>
        <time>2019-01-18T13:15:10+01:00</time>
      </trkpt>
      <trkpt lat="44.66661" lon="5.05019">
        <ele>611</ele>
        <time>2019-01-18T13:15:40+01:00</time>
      </trkpt>
      <trkpt lat="44.66653" lon="5.04989">
        <ele>611</ele>
        <time>2019-01-18T13:16:07+01:00</time>
      </trkpt>
      <trkpt lat="44.66646" lon="5.04959">
        <ele>610</ele>
        <time>2019-01-18T13:16:23+01:00</time>
      </trkpt>
      <trkpt lat="44.66637" lon="5.04929">
        <ele>608</ele>
        <time>2019-01-18T13:16:54+01:00</time>
      </trkpt>
      <trkpt lat="44.66625" lon="5.04901">
        <ele>610</ele>
        <time>2019-01-18T13:17:20+01:00</time>
      </trkpt>
      <trkpt lat="44.6663" lon="5.04869">
        <ele>606</ele>
        <time>2019-01-18T13:17:51+01:00</time>
      </trkpt>
      <trkpt lat="44.6663" lon="5.04836">
        <ele>608</ele>
        <time>2019-01-18T13:18:15+01:00</time>
      </trkpt>
      <trkpt lat="44.66638" lon="5.04805">
        <ele>605</ele>
        <time>2019-01-18T13:18:41+01:00</time>
      </trkpt>
      <trkpt lat="44.66638" lon="5.04771">
        <ele>605</ele>
        <time>2019-01-18T13:19:03+01:00</time>
      </trkpt>
      <trkpt lat="44.66635" lon="5.04737">
        <ele>605</ele>
        <time>2019-01-18T13:19:25+01:00</time>
      </trkpt>
      <trkpt lat="44.66623" lon="5.0471">
        <ele>609</ele>
        <time>2019-01-18T13:19:48+01:00</time>
      </trkpt>
      <trkpt lat="44.66608" lon="5.04688">
        <ele>615</ele>
        <time>2019-01-18T13:21:00+01:00</time>
      </trkpt>
      <trkpt lat="44.66605" lon="5.04654">
        <ele>613</ele>
        <time>2019-01-18T13:22:04+01:00</time>
      </trkpt>
      <trkpt lat="44.66597" lon="5.04624">
        <ele>610</ele>
        <time>2019-01-18T13:22:38+01:00</time>
      </trkpt>
      <trkpt lat="44.6658" lon="5.046">
        <ele>614</ele>
        <time>2019-01-18T13:23:16+01:00</time>
      </trkpt>
      <trkpt lat="44.66586" lon="5.04569">
        <ele>607</ele>
        <time>2019-01-18T13:23:40+01:00</time>
      </trkpt>
      <trkpt lat="44.66577" lon="5.04539">
        <ele>606</ele>
        <time>2019-01-18T13:24:03+01:00</time>
      </trkpt>
      <trkpt lat="44.66568" lon="5.04508">
        <ele>603</ele>
        <time>2019-01-18T13:24:28+01:00</time>
      </trkpt>
      <trkpt lat="44.66554" lon="5.04481">
        <ele>604</ele>
        <time>2019-01-18T13:24:55+01:00</time>
      </trkpt>
      <trkpt lat="44.66544" lon="5.04451">
        <ele>603</ele>
        <time>2019-01-18T13:25:16+01:00</time>
      </trkpt>
      <trkpt lat="44.66528" lon="5.04429">
        <ele>596</ele>
        <time>2019-01-18T13:25:51+01:00</time>
      </trkpt>
      <trkpt lat="44.66514" lon="5.04402">
        <ele>587</ele>
        <time>2019-01-18T13:26:26+01:00</time>
      </trkpt>
      <trkpt lat="44.66498" lon="5.04379">
        <ele>582</ele>
        <time>2019-01-18T13:26:50+01:00</time>
      </trkpt>
      <trkpt lat="44.66486" lon="5.0435">
        <ele>578</ele>
        <time>2019-01-18T13:27:25+01:00</time>
      </trkpt>
      <trkpt lat="44.66474" lon="5.04323">
        <ele>575</ele>
        <time>2019-01-18T13:27:49+01:00</time>
      </trkpt>
      <trkpt lat="44.66463" lon="5.04294">
        <ele>573</ele>
        <time>2019-01-18T13:28:52+01:00</time>
      </trkpt>
      <trkpt lat="44.66457" lon="5.04262">
        <ele>569</ele>
        <time>2019-01-18T13:29:34+01:00</time>
      </trkpt>
      <trkpt lat="44.66458" lon="5.0423">
        <ele>565</ele>
        <time>2019-01-18T13:30:17+01:00</time>
      </trkpt>
      <trkpt lat="44.66455" lon="5.04199">
        <ele>562</ele>
        <time>2019-01-18T13:30:47+01:00</time>
      </trkpt>
      <trkpt lat="44.66443" lon="5.04172">
        <ele>560</ele>
        <time>2019-01-18T13:31:16+01:00</time>
      </trkpt>
      <trkpt lat="44.66424" lon="5.04154">
        <ele>563</ele>
        <time>2019-01-18T13:31:40+01:00</time>
      </trkpt>
      <trkpt lat="44.66406" lon="5.04135">
        <ele>565</ele>
        <time>2019-01-18T13:32:11+01:00</time>
      </trkpt>
      <trkpt lat="44.66383" lon="5.04132">
        <ele>567</ele>
        <time>2019-01-18T13:32:41+01:00</time>
      </trkpt>
      <trkpt lat="44.6636" lon="5.04134">
        <ele>569</ele>
        <time>2019-01-18T13:33:04+01:00</time>
      </trkpt>
      <trkpt lat="44.6634" lon="5.04118">
        <ele>570</ele>
        <time>2019-01-18T13:33:37+01:00</time>
      </trkpt>
      <trkpt lat="44.6632" lon="5.04103">
        <ele>571</ele>
        <time>2019-01-18T13:34:07+01:00</time>
      </trkpt>
      <trkpt lat="44.6631" lon="5.04074">
        <ele>568</ele>
        <time>2019-01-18T13:34:27+01:00</time>
      </trkpt>
      <trkpt lat="44.66292" lon="5.04055">
        <ele>567</ele>
        <time>2019-01-18T13:34:49+01:00</time>
      </trkpt>
      <trkpt lat="44.66269" lon="5.04052">
        <ele>566</ele>
        <time>2019-01-18T13:35:29+01:00</time>
      </trkpt>
      <trkpt lat="44.66246" lon="5.04054">
        <ele>563</ele>
        <time>2019-01-18T13:35:53+01:00</time>
      </trkpt>
      <trkpt lat="44.66224" lon="5.04044">
        <ele>560</ele>
        <time>2019-01-18T13:36:18+01:00</time>
      </trkpt>
      <trkpt lat="44.66213" lon="5.04017">
        <ele>554</ele>
        <time>2019-01-18T13:36:37+01:00</time>
      </trkpt>
      <trkpt lat="44.66212" lon="5.03985">
        <ele>549</ele>
        <time>2019-01-18T13:37:13+01:00</time>
      </trkpt>
      <trkpt lat="44.66216" lon="5.03954">
        <ele>543</ele>
        <time>2019-01-18T13:37:39+01:00</time>
      </trkpt>
      <trkpt lat="44.66198" lon="5.03935">
        <ele>543</ele>
        <time>2019-01-18T13:38:22+01:00</time>
      </trkpt>
      <trkpt lat="44.66186" lon="5.03908">
        <ele>540</ele>
        <time>2019-01-18T13:38:49+01:00</time>
      </trkpt>
      <trkpt lat="44.66172" lon="5.03883">
        <ele>536</ele>
        <time>2019-01-18T13:39:16+01:00</time>
      </trkpt>
      <trkpt lat="44.66156" lon="5.03859">
        <ele>533</ele>
        <time>2019-01-18T13:39:45+01:00</time>
      </trkpt>
      <trkpt lat="44.66134" lon="5.03844">
        <ele>531</ele>
        <time>2019-01-18T13:40:08+01:00</time>
      </trkpt>
      <trkpt lat="44.66111" lon="5.0385">
        <ele>531</ele>
        <time>2019-01-18T13:40:48+01:00</time>
      </trkpt>
      <trkpt lat="44.66089" lon="5.03847">
        <ele>531</ele>
        <time>2019-01-18T13:41:17+01:00</time>
      </trkpt>
      <trkpt lat="44.66066" lon="5.03853">
        <ele>531</ele>
        <time>2019-01-18T13:41:39+01:00</time>
      </trkpt>
      <trkpt lat="44.66043" lon="5.0386">
        <ele>532</ele>
        <time>2019-01-18T13:41:58+01:00</time>
      </trkpt>
      <trkpt lat="44.6602" lon="5.03855">
        <ele>531</ele>
        <time>2019-01-18T13:42:21+01:00</time>
      </trkpt>
      <trkpt lat="44.65997" lon="5.03856">
        <ele>531</ele>
        <time>2019-01-18T13:42:54+01:00</time>
      </trkpt>
      <trkpt lat="44.65975" lon="5.03852">
        <ele>531</ele>
        <time>2019-01-18T13:43:12+01:00</time>
      </trkpt>
      <trkpt lat="44.65952" lon="5.03848">
        <ele>531</ele>
        <time>2019-01-18T13:43:31+01:00</time>
      </trkpt>
      <trkpt lat="44.65931" lon="5.03837">
        <ele>531</ele>
        <time>2019-01-18T13:43:47+01:00</time>
      </trkpt>
      <trkpt lat="44.65913" lon="5.03816">
        <ele>531</ele>
        <time>2019-01-18T13:44:12+01:00</time>
      </trkpt>
      <trkpt lat="44.65895" lon="5.03794">
        <ele>532</ele>
        <time>2019-01-18T13:44:45+01:00</time>
      </trkpt>
      <trkpt lat="44.6588" lon="5.03767">
        <ele>531</ele>
        <time>2019-01-18T13:45:02+01:00</time>
      </trkpt>
      <trkpt lat="44.65863" lon="5.03745">
        <ele>532</ele>
        <time>2019-01-18T13:45:22+01:00</time>
      </trkpt>
      <trkpt lat="44.65844" lon="5.03726">
        <ele>530</ele>
        <time>2019-01-18T13:45:44+01:00</time>
      </trkpt>
      <trkpt lat="44.65821" lon="5.03722">
        <ele>528</ele>
        <time>2019-01-18T13:46:07+01:00</time>
      </trkpt>
      <trkpt lat="44.65801" lon="5.03737">
        <ele>527</ele>
        <time>2019-01-18T13:46:36+01:00</time>
      </trkpt>
      <trkpt lat="44.6578" lon="5.03753">
        <ele>524</ele>
        <time>2019-01-18T13:47:11+01:00</time>
      </trkpt>
      <trkpt lat="44.6576" lon="5.0377">
        <ele>522</ele>
        <time>2019-01-18T13:47:34+01:00</time>
      </trkpt>
      <trkpt lat="44.65737" lon="5.03775">
        <ele>519</ele>
        <time>2019-01-18T13:47:56+01:00</time>
      </trkpt>
      <trkpt lat="44.65715" lon="5.03767">
        <ele>515</ele>
        <time>2019-01-18T13:48:25+01:00</time>
      </trkpt>
      <trkpt lat="44.65692" lon="5.03769">
        <ele>514</ele>
        <time>2019-01-18T13:48:56+01:00</time>
      </trkpt>
      <trkpt lat="44.65669" lon="5.03765">
        <ele>512</ele>
        <time>2019-01-18T13:49:16+01:00</time>
      </trkpt>
      <trkpt lat="44.65646" lon="5.03772">
        <ele>510</ele>
        <time>2019-01-18T13:49:41+01:00</time>
      </trkpt>
      <trkpt lat="44.65624" lon="5.03776">
        <ele>505</ele>
        <time>2019-01-18T13:50:33+01:00</time>
      </trkpt>
      <trkpt lat="44.65608" lon="5.03799">
        <ele>506</ele>
        <time>2019-01-18T13:51:08+01:00</time>
      </trkpt>
      <trkpt lat="44.65591" lon="5.0382">
        <ele>504</ele>
        <time>2019-01-18T13:51:30+01:00</time>
      </trkpt>
      <trkpt lat="44.65572" lon="5.03841">
        <ele>501</ele>
        <time>2019-01-18T13:51:56+01:00</time>
      </trkpt>
      <trkpt lat="44.65558" lon="5.03866">
        <ele>499</ele>
        <time>2019-01-18T13:52:24+01:00</time>
      </trkpt>
      <trkpt lat="44.65547" lon="5.03895">
        <ele>499</ele>
        <time>2019-01-18T13:52:54+01:00</time>
      </trkpt>
      <trkpt lat="44.65524" lon="5.039">
        <ele>495</ele>
        <time>2019-01-18T13:53:13+01:00</time>
      </trkpt>
      <trkpt lat="44.65501" lon="5.03902">
        <ele>492</ele>
        <time>2019-01-18T13:53:40+01:00</time>
      </trkpt>
      <trkpt lat="44.65479" lon="5.0391">
        <ele>490</ele>
        <time>2019-01-18T13:54:04+01:00</time>
      </trkpt>
      <trkpt lat="44.65457" lon="5.03919">
        <ele>488</ele>
        <time>2019-01-18T13:54:28+01:00</time>
      </trkpt>
      <trkpt lat="44.65436" lon="5.03933">
        <ele>489</ele>
        <time>2019-01-18T13:54:51+01:00</time>
      </trkpt>
      <trkpt lat="44.65413" lon="5.03937">
        <ele>487</ele>
        <time>2019-01-18T13:55:10+01:00</time>
      </trkpt>
      <trkpt lat="44.65393" lon="5.03953">
        <ele>490</ele>
        <time>2019-01-18T13:55:33+01:00</time>
      </trkpt>
      <trkpt lat="44.65375" lon="5.03975">
        <ele>494</ele>
        <time>2019-01-18T13:55:59+01:00</time>
      </trkpt>
      <trkpt lat="44.65355" lon="5.03994">
        <ele>494</ele>
        <time>2019-01-18T13:56:20+01:00</time>
      </trkpt>
      <trkpt lat="44.65342" lon="5.0402">
        <ele>495</ele>
        <time>2019-01-18T13:56:52+01:00</time>
      </trkpt>
      <trkpt lat="44.6535" lon="5.0405">
        <ele>499</ele>
        <time>2019-01-18T13:57:14+01:00</time>
      </trkpt>
      <trkpt lat="44.65361" lon="5.04077">
        <ele>501</ele>
        <time>2019-01-18T13:57:47+01:00</time>
      </trkpt>
      <trkpt lat="44.65364" lon="5.04109">
        <ele>503</ele>
        <time>2019-01-18T13:58:05+01:00</time>
      </trkpt>
      <trkpt lat="44.65348" lon="5.04132">
        <ele>503</ele>
        <time>2019-01-18T13:58:28+01:00</time>
      </trkpt>
      <trkpt lat="44.65335" lon="5.04164">
        <ele>506</ele>
        <time>2019-01-18T13:59:29+01:00</time>
      </trkpt>
      <trkpt lat="44.65321" lon="5.04188">
        <ele>506</ele>
        <time>2019-01-18T13:59:54+01:00</time>
      </trkpt>
      <trkpt lat="44.65316" lon="5.04219">
        <ele>507</ele>
        <time>2019-01-18T14:00:15+01:00</time>
      </trkpt>
      <trkpt lat="44.65316" lon="5.04252">
        <ele>509</ele>
        <time>2019-01-18T14:00:35+01:00</time>
      </trkpt>
      <trkpt lat="44.65307" lon="5.04283">
        <ele>509</ele>
        <time>2019-01-18T14:00:56+01:00</time>
      </trkpt>
      <trkpt lat="44.65303" lon="5.04314">
        <ele>510</ele>
        <time>2019-01-18T14:01:22+01:00</time>
      </trkpt>
      <trkpt lat="44.65291" lon="5.04343">
        <ele>508</ele>
        <time>2019-01-18T14:01:35+01:00</time>
      </trkpt>
      <trkpt lat="44.65298" lon="5.04374">
        <ele>512</ele>
        <time>2019-01-18T14:02:08+01:00</time>
      </trkpt>
      <trkpt lat="44.65299" lon="5.04406">
        <ele>514</ele>
        <time>2019-01-18T14:02:32+01:00</time>
      </trkpt>
      <trkpt lat="44.65279" lon="5.04423">
        <ele>510</ele>
        <time>2019-01-18T14:03:58+01:00</time>
      </trkpt>
      <trkpt lat="44.65267" lon="5.04451">
        <ele>510</ele>
        <time>2019-01-18T14:04:36+01:00</time>
      </trkpt>
      <trkpt lat="44.65257" lon="5.04478">
        <ele>509</ele>
        <time>2019-01-18T14:04:56+01:00</time>
      </trkpt>
      <trkpt lat="44.65245" lon="5.04506">
        <ele>507</ele>
        <time>2019-01-18T14:05:29+01:00</time>
      </trkpt>
      <trkpt lat="44.65223" lon="5.04493">
        <ele>501</ele>
        <time>2019-01-18T14:05:59+01:00</time>
      </trkpt>
      <trkpt lat="44.65201" lon="5.04486">
        <ele>496</ele>
        <time>2019-01-18T14:07:11+01:00</time>
      </trkpt>
      <trkpt lat="44.65178" lon="5.04479">
        <ele>489</ele>
        <time>2019-01-18T14:07:36+01:00</time>
      </trkpt>
      <trkpt lat="44.65156" lon="5.04468">
        <ele>483</ele>
        <time>2019-01-18T14:07:59+01:00</time>
      </trkpt>
      <trkpt lat="44.65133" lon="5.04465">
        <ele>478</ele>
        <time>2019-01-18T14:08:31+01:00</time>
      </trkpt>
      <trkpt lat="44.65111" lon="5.04457">
        <ele>473</ele>
        <time>2019-01-18T14:08:59+01:00</time>
      </trkpt>
      <trkpt lat="44.65088" lon="5.04454">
        <ele>470</ele>
        <time>2019-01-18T14:09:25+01:00</time>
      </trkpt>
      <trkpt lat="44.65068" lon="5.04439">
        <ele>467</ele>
        <time>2019-01-18T14:09:49+01:00</time>
      </trkpt>
      <trkpt lat="44.65046" lon="5.04431">
        <ele>465</ele>
        <time>2019-01-18T14:10:08+01:00</time>
      </trkpt>
      <trkpt lat="44.65024" lon="5.04424">
        <ele>463</ele>
        <time>2019-01-18T14:10:39+01:00</time>
      </trkpt>
      <trkpt lat="44.65001" lon="5.04431">
        <ele>460</ele>
        <time>2019-01-18T14:11:15+01:00</time>
      </trkpt>
      <trkpt lat="44.64981" lon="5.04447">
        <ele>458</ele>
        <time>2019-01-18T14:11:33+01:00</time>
      </trkpt>
      <trkpt lat="44.64966" lon="5.04471">
        <ele>457</ele>
        <time>2019-01-18T14:14:54+01:00</time>
      </trkpt>
      <trkpt lat="44.64953" lon="5.04497">
        <ele>456</ele>
        <time>2019-01-18T14:15:13+01:00</time>
      </trkpt>
      <trkpt lat="44.64946" lon="5.04527">
        <ele>456</ele>
        <time>2019-01-18T14:15:41+01:00</time>
      </trkpt>
      <trkpt lat="44.64933" lon="5.04555">
        <ele>457</ele>
        <time>2019-01-18T14:16:06+01:00</time>
      </trkpt>
      <trkpt lat="44.64932" lon="5.04587">
        <ele>458</ele>
        <time>2019-01-18T14:16:33+01:00</time>
      </trkpt>
      <trkpt lat="44.64937" lon="5.04618">
        <ele>456</ele>
        <time>2019-01-18T14:16:56+01:00</time>
      </trkpt>
      <trkpt lat="44.64935" lon="5.0465">
        <ele>453</ele>
        <time>2019-01-18T14:17:28+01:00</time>
      </trkpt>
      <trkpt lat="44.64935" lon="5.04682">
        <ele>450</ele>
        <time>2019-01-18T14:17:59+01:00</time>
      </trkpt>
      <trkpt lat="44.64932" lon="5.04714">
        <ele>447</ele>
        <time>2019-01-18T14:18:15+01:00</time>
      </trkpt>
      <trkpt lat="44.64938" lon="5.04745">
        <ele>446</ele>
        <time>2019-01-18T14:18:43+01:00</time>
      </trkpt>
      <trkpt lat="44.6493" lon="5.04775">
        <ele>444</ele>
        <time>2019-01-18T14:19:02+01:00</time>
      </trkpt>
      <trkpt lat="44.64915" lon="5.048">
        <ele>438</ele>
        <time>2019-01-18T14:19:22+01:00</time>
      </trkpt>
      <trkpt lat="44.64902" lon="5.04826">
        <ele>434</ele>
        <time>2019-01-18T14:19:50+01:00</time>
      </trkpt>
      <trkpt lat="44.64887" lon="5.0485">
        <ele>430</ele>
        <time>2019-01-18T14:20:13+01:00</time>
      </trkpt>
      <trkpt lat="44.6488" lon="5.0488">
        <ele>429</ele>
        <time>2019-01-18T14:20:44+01:00</time>
      </trkpt>
      <trkpt lat="44.64869" lon="5.04909">
        <ele>427</ele>
        <time>2019-01-18T14:21:08+01:00</time>
      </trkpt>
      <trkpt lat="44.64859" lon="5.04938">
        <ele>423</ele>
        <time>2019-01-18T14:21:34+01:00</time>
      </trkpt>
      <trkpt lat="44.64841" lon="5.04958">
        <ele>419</ele>
        <time>2019-01-18T14:21:56+01:00</time>
      </trkpt>
      <trkpt lat="44.64832" lon="5.04987">
        <ele>417</ele>
        <time>2019-01-18T14:22:18+01:00</time>
      </trkpt>
      <trkpt lat="44.64818" lon="5.05012">
        <ele>415</ele>
        <time>2019-01-18T14:22:43+01:00</time>
      </trkpt>
      <trkpt lat="44.64805" lon="5.05039">
        <ele>413</ele>
        <time>2019-01-18T14:23:05+01:00</time>
      </trkpt>
      <trkpt lat="44.64786" lon="5.05058">
        <ele>411</ele>
        <time>2019-01-18T14:23:27+01:00</time>
      </trkpt>
      <trkpt lat="44.64771" lon="5.05081">
        <ele>408</ele>
        <time>2019-01-18T14:23:54+01:00</time>
      </trkpt>
      <trkpt lat="44.64753" lon="5.05101">
        <ele>403</ele>
        <time>2019-01-18T14:24:19+01:00</time>
      </trkpt>
      <trkpt lat="44.64733" lon="5.05119">
        <ele>399</ele>
        <time>2019-01-18T14:24:40+01:00</time>
      </trkpt>
      <trkpt lat="44.64713" lon="5.05139">
        <ele>396</ele>
        <time>2019-01-18T14:25:05+01:00</time>
      </trkpt>
      <trkpt lat="44.6471" lon="5.05171">
        <ele>395</ele>
        <time>2019-01-18T14:25:36+01:00</time>
      </trkpt>
      <trkpt lat="44.64692" lon="5.05192">
        <ele>391</ele>
        <time>2019-01-18T14:25:52+01:00</time>
      </trkpt>
      <trkpt lat="44.64671" lon="5.05204">
        <ele>387</ele>
        <time>2019-01-18T14:26:41+01:00</time>
      </trkpt>
      <trkpt lat="44.64652" lon="5.05221">
        <ele>383</ele>
        <time>2019-01-18T14:27:05+01:00</time>
      </trkpt>
      <trkpt lat="44.64633" lon="5.05239">
        <ele>379</ele>
        <time>2019-01-18T14:27:35+01:00</time>
      </trkpt>
      <trkpt lat="44.64617" lon="5.05264">
        <ele>375</ele>
        <time>2019-01-18T14:27:52+01:00</time>
      </trkpt>
      <trkpt lat="44.64613" lon="5.05297">
        <ele>370</ele>
        <time>2019-01-18T14:28:24+01:00</time>
      </trkpt>
      <trkpt lat="44.64623" lon="5.05325">
        <ele>365</ele>
        <time>2019-01-18T14:28:47+01:00</time>
      </trkpt>
      <trkpt lat="44.64627" lon="5.05662">
        <ele>334</ele>
        <time>2019-01-18T14:29:13+01:00</time>
      </trkpt>
      <trkpt lat="44.64631" lon="5.05446">
        <ele>344</ele>
        <time>2019-01-18T14:29:14+01:00</time>
      </trkpt>
      <trkpt lat="44.64636" lon="5.05385">
        <ele>352</ele>
        <time>2019-01-18T14:29:15+01:00</time>
      </trkpt>
      <trkpt lat="44.6464" lon="5.0535">
        <ele>359</ele>
        <time>2019-01-18T14:29:18+01:00</time>
      </trkpt>
      <trkpt lat="44.64658" lon="5.05372">
        <ele>355</ele>
        <time>2019-01-18T14:29:44+01:00</time>
      </trkpt>
      <trkpt lat="44.6467" lon="5.05399">
        <ele>352</ele>
        <time>2019-01-18T14:30:10+01:00</time>
      </trkpt>
      <trkpt lat="44.64674" lon="5.05431">
        <ele>351</ele>
        <time>2019-01-18T14:30:33+01:00</time>
      </trkpt>
      <trkpt lat="44.64658" lon="5.05456">
        <ele>348</ele>
        <time>2019-01-18T14:31:00+01:00</time>
      </trkpt>
      <trkpt lat="44.64647" lon="5.05485">
        <ele>346</ele>
        <time>2019-01-18T14:31:17+01:00</time>
      </trkpt>
      <trkpt lat="44.64657" lon="5.05513">
        <ele>347</ele>
        <time>2019-01-18T14:31:52+01:00</time>
      </trkpt>
      <trkpt lat="44.64669" lon="5.05541">
        <ele>345</ele>
        <time>2019-01-18T14:32:15+01:00</time>
      </trkpt>
      <trkpt lat="44.64683" lon="5.05567">
        <ele>346</ele>
        <time>2019-01-18T14:32:40+01:00</time>
      </trkpt>
      <trkpt lat="44.6469" lon="5.05598">
        <ele>345</ele>
        <time>2019-01-18T14:33:03+01:00</time>
      </trkpt>
      <trkpt lat="44.64692" lon="5.0563">
        <ele>344</ele>
        <time>2019-01-18T14:33:21+01:00</time>
      </trkpt>
      <trkpt lat="44.64693" lon="5.05662">
        <ele>343</ele>
        <time>2019-01-18T14:33:41+01:00</time>
      </trkpt>
      <trkpt lat="44.64691" lon="5.05694">
        <ele>341</ele>
        <time>2019-01-18T14:34:01+01:00</time>
      </trkpt>
      <trkpt lat="44.6469" lon="5.05727">
        <ele>339</ele>
        <time>2019-01-18T14:34:23+01:00</time>
      </trkpt>
      <trkpt lat="44.64682" lon="5.05757">
        <ele>337</ele>
        <time>2019-01-18T14:34:41+01:00</time>
      </trkpt>
      <trkpt lat="44.64687" lon="5.05788">
        <ele>336</ele>
        <time>2019-01-18T14:35:05+01:00</time>
      </trkpt>
      <trkpt lat="44.64693" lon="5.0582">
        <ele>336</ele>
        <time>2019-01-18T14:35:31+01:00</time>
      </trkpt>
      <trkpt lat="44.64698" lon="5.05851">
        <ele>336</ele>
        <time>2019-01-18T14:35:53+01:00</time>
      </trkpt>
      <trkpt lat="44.64702" lon="5.05882">
        <ele>337</ele>
        <time>2019-01-18T14:36:17+01:00</time>
      </trkpt>
      <trkpt lat="44.64708" lon="5.05914">
        <ele>338</ele>
        <time>2019-01-18T14:36:44+01:00</time>
      </trkpt>
      <trkpt lat="44.64707" lon="5.05946">
        <ele>337</ele>
        <time>2019-01-18T14:37:05+01:00</time>
      </trkpt>
      <trkpt lat="44.64708" lon="5.05979">
        <ele>336</ele>
        <time>2019-01-18T14:37:31+01:00</time>
      </trkpt>
      <trkpt lat="44.64721" lon="5.06005">
        <ele>337</ele>
        <time>2019-01-18T14:37:49+01:00</time>
      </trkpt>
      <trkpt lat="44.64724" lon="5.06037">
        <ele>336</ele>
        <time>2019-01-18T14:38:06+01:00</time>
      </trkpt>
      <trkpt lat="44.64729" lon="5.06067">
        <ele>336</ele>
        <time>2019-01-18T14:38:33+01:00</time>
      </trkpt>
      <trkpt lat="44.64726" lon="5.06099">
        <ele>335</ele>
        <time>2019-01-18T14:40:29+01:00</time>
      </trkpt>
      <trkpt lat="44.64704" lon="5.06113">
        <ele>332</ele>
        <time>2019-01-18T14:40:41+01:00</time>
      </trkpt>
      <trkpt lat="44.64687" lon="5.06091">
        <ele>331</ele>
        <time>2019-01-18T14:41:07+01:00</time>
      </trkpt>
    </trkseg>
  </trk>
</gpx>